createdAt,value
2018-07-27T00:00:30.259Z,96835.01
2018-07-27T00:02:57.512Z,96829.23
2018-07-27T00:05:24.664Z,96819.61
2018-07-27T00:07:51.837Z,96826.33
2018-07-27T00:10:19.037Z,96816.09
2018-07-27T00:12:46.224Z,96827.09
2018-07-27T00:15:13.781Z,96823.08
2018-07-27T00:17:41.265Z,96827.46
2018-07-27T00:20:08.497Z,96828.65
2018-07-27T00:22:35.913Z,96822.31
2018-07-27T00:25:04.472Z,96814.08
2018-07-27T00:27:31.651Z,96821.57
2018-07-27T00:29:58.754Z,96819.66
2018-07-27T00:32:26.015Z,96816.77
2018-07-27T00:34:53.191Z,96819.84
2018-07-27T00:37:20.496Z,96821.02
2018-07-27T00:39:47.799Z,96817.75
2018-07-27T00:42:14.956Z,96826.00
2018-07-27T00:44:42.099Z,96825.97
2018-07-27T00:47:09.263Z,96823.62
2018-07-27T00:49:36.397Z,96825.28
2018-07-27T00:52:03.520Z,96819.36
2018-07-27T00:54:30.671Z,96820.16
2018-07-27T00:56:57.839Z,96820.70
2018-07-27T00:59:25.237Z,96819.03
2018-07-27T01:01:52.388Z,96821.50
2018-07-27T01:04:19.544Z,96823.78
2018-07-27T01:06:53.513Z,96824.77
2018-07-27T01:09:20.640Z,96819.38
2018-07-27T01:11:47.821Z,96817.48
2018-07-27T01:14:14.987Z,96820.53
2018-07-27T01:16:42.160Z,96814.73
2018-07-27T01:19:09.233Z,96809.42
2018-07-27T01:21:36.389Z,96809.69
2018-07-27T01:24:03.556Z,96813.45
2018-07-27T01:26:30.708Z,96813.58
2018-07-27T01:28:57.860Z,96794.53
2018-07-27T01:31:25.003Z,96809.11
2018-07-27T01:33:52.472Z,96804.95
2018-07-27T01:36:19.635Z,96809.37
2018-07-27T01:38:46.775Z,96810.17
2018-07-27T01:41:13.937Z,96809.16
2018-07-27T01:43:41.115Z,96810.19
2018-07-27T01:46:08.280Z,96809.09
2018-07-27T01:48:35.427Z,96800.42
2018-07-27T01:51:03.599Z,96799.95
2018-07-27T01:53:30.828Z,96801.58
2018-07-27T01:55:58.006Z,96802.03
2018-07-27T01:58:25.237Z,96802.34
2018-07-27T02:00:52.484Z,96797.45
2018-07-27T02:03:19.643Z,96804.84
2018-07-27T02:05:46.787Z,96797.71
2018-07-27T02:08:13.880Z,96805.73
2018-07-27T02:10:41.079Z,96795.83
2018-07-27T02:13:08.285Z,96794.56
2018-07-27T02:15:35.413Z,96789.84
2018-07-27T02:18:02.613Z,96783.48
2018-07-27T02:20:29.783Z,96783.41
2018-07-27T02:22:56.876Z,96784.22
2018-07-27T02:25:24.065Z,96785.48
2018-07-27T02:27:51.206Z,96780.99
2018-07-27T02:30:18.360Z,96778.40
2018-07-27T02:32:45.500Z,96781.89
2018-07-27T02:35:12.635Z,96778.91
2018-07-27T02:37:39.750Z,96783.87
2018-07-27T02:42:33.500Z,96788.97
2018-07-27T02:45:00.679Z,96776.55
2018-07-27T02:47:27.837Z,96781.83
2018-07-27T02:49:54.908Z,96785.16
2018-07-27T02:52:22.030Z,96784.26
2018-07-27T02:54:49.171Z,96785.09
2018-07-27T02:57:16.313Z,96785.26
2018-07-27T02:59:43.745Z,96787.16
2018-07-27T03:02:10.944Z,96779.44
2018-07-27T03:04:38.060Z,96774.91
2018-07-27T03:07:05.245Z,96785.11
2018-07-27T03:09:32.481Z,96784.75
2018-07-27T03:11:59.662Z,96772.91
2018-07-27T03:14:26.806Z,96780.00
2018-07-27T03:16:53.940Z,96778.83
2018-07-27T03:19:21.044Z,96770.09
2018-07-27T03:21:48.161Z,96775.73
2018-07-27T03:24:15.320Z,96775.89
2018-07-27T03:26:42.475Z,96770.14
2018-07-27T03:29:09.625Z,96768.80
2018-07-27T03:31:36.728Z,96770.97
2018-07-27T03:34:03.877Z,96777.82
2018-07-27T03:36:31.064Z,96785.23
2018-07-27T03:38:58.217Z,96785.06
2018-07-27T03:41:25.361Z,96788.27
2018-07-27T03:43:52.537Z,96790.43
2018-07-27T03:46:19.741Z,96787.74
2018-07-27T03:48:46.900Z,96780.77
2018-07-27T03:51:14.026Z,96784.70
2018-07-27T03:53:41.193Z,96779.23
2018-07-27T03:56:08.382Z,96785.98
2018-07-27T03:58:35.517Z,96782.83
2018-07-27T04:01:02.676Z,96785.63
2018-07-27T04:03:29.839Z,96798.83
2018-07-27T04:05:56.971Z,96787.70
2018-07-27T04:08:24.413Z,96787.88
2018-07-27T04:10:51.603Z,96787.70
2018-07-27T04:13:18.768Z,96786.27
2018-07-27T04:15:45.924Z,96783.86
2018-07-27T04:18:13.072Z,96776.66
2018-07-27T04:20:40.195Z,96781.41
2018-07-27T04:23:07.313Z,96785.36
2018-07-27T04:25:34.441Z,96784.44
2018-07-27T04:28:01.580Z,96785.02
2018-07-27T04:30:28.709Z,96784.86
2018-07-27T04:32:55.864Z,96781.78
2018-07-27T04:35:23.012Z,96786.41
2018-07-27T04:37:50.212Z,96784.87
2018-07-27T04:40:17.337Z,96788.90
2018-07-27T04:42:44.468Z,96786.98
2018-07-27T04:45:11.632Z,96786.84
2018-07-27T04:47:38.864Z,96786.67
2018-07-27T04:50:07.202Z,96785.54
2018-07-27T04:52:34.360Z,96786.95
2018-07-27T04:55:01.498Z,96797.17
2018-07-27T04:57:28.636Z,96789.85
2018-07-27T04:59:55.799Z,96789.84
2018-07-27T05:02:22.952Z,96786.56
2018-07-27T05:04:50.148Z,96788.04
2018-07-27T05:07:17.352Z,96790.78
2018-07-27T05:09:44.453Z,96788.81
2018-07-27T05:12:11.606Z,96788.86
2018-07-27T05:14:38.775Z,96786.54
2018-07-27T05:17:05.912Z,96788.66
2018-07-27T05:19:33.070Z,96790.47
2018-07-27T05:22:00.237Z,96792.04
2018-07-27T05:24:27.461Z,96795.44
2018-07-27T05:26:54.608Z,96789.58
2018-07-27T05:29:21.801Z,96799.73
2018-07-27T05:31:49.035Z,96793.73
2018-07-27T05:34:16.155Z,96791.14
2018-07-27T05:36:43.319Z,96790.16
2018-07-27T05:39:11.574Z,96789.72
2018-07-27T05:41:38.673Z,96794.44
2018-07-27T05:44:05.948Z,96792.15
2018-07-27T05:46:33.096Z,96790.80
2018-07-27T05:49:00.256Z,96790.92
2018-07-27T05:51:27.480Z,96793.06
2018-07-27T05:53:54.584Z,96795.23
2018-07-27T05:56:21.772Z,96789.69
2018-07-27T05:58:48.937Z,96784.49
2018-07-27T06:01:16.140Z,96785.60
2018-07-27T06:03:43.244Z,96785.54
2018-07-27T06:06:10.414Z,96785.91
2018-07-27T06:08:37.786Z,96783.73
2018-07-27T06:11:04.911Z,96789.76
2018-07-27T06:13:32.086Z,96796.48
2018-07-27T06:15:59.224Z,96786.69
2018-07-27T06:18:26.360Z,96792.25
2018-07-27T06:20:53.665Z,96788.86
2018-07-27T06:23:20.833Z,96792.44
2018-07-27T06:25:48.020Z,96790.83
2018-07-27T06:28:15.240Z,96788.57
2018-07-27T06:30:42.301Z,96783.60
2018-07-27T06:33:09.448Z,96790.84
2018-07-27T06:35:36.568Z,96787.11
2018-07-27T06:38:03.752Z,96791.92
2018-07-27T06:40:30.957Z,96784.67
2018-07-27T06:42:58.181Z,96789.84
2018-07-27T06:45:25.349Z,96794.98
2018-07-27T06:47:52.514Z,96787.80
2018-07-27T06:50:19.672Z,96789.27
2018-07-27T06:52:46.901Z,96790.69
2018-07-27T06:55:14.270Z,96788.69
2018-07-27T06:57:41.576Z,96788.23
2018-07-27T07:00:08.724Z,96789.11
2018-07-27T07:02:35.826Z,96786.06
2018-07-27T07:05:03.962Z,96787.69
2018-07-27T07:07:31.071Z,96792.63
2018-07-27T07:09:58.232Z,96786.89
2018-07-27T07:12:25.440Z,96792.72
2018-07-27T07:14:52.597Z,96792.89
2018-07-27T07:17:19.759Z,96783.23
2018-07-27T07:19:46.972Z,96786.82
2018-07-27T07:22:14.156Z,96791.45
2018-07-27T07:24:41.336Z,96790.24
2018-07-27T07:27:08.448Z,96792.19
2018-07-27T07:29:35.592Z,96780.66
2018-07-27T07:32:02.755Z,96783.44
2018-07-27T07:34:29.879Z,96778.18
2018-07-27T07:36:57.048Z,96781.39
2018-07-27T07:39:24.236Z,96782.98
2018-07-27T07:41:51.439Z,96782.85
2018-07-27T07:44:18.539Z,96785.29
2018-07-27T07:46:45.704Z,96777.47
2018-07-27T07:49:12.818Z,96781.50
2018-07-27T07:51:40.013Z,96777.44
2018-07-27T07:54:07.184Z,96774.79
2018-07-27T07:56:34.424Z,96773.06
2018-07-27T07:59:01.969Z,96769.44
2018-07-27T08:01:29.201Z,96775.69
2018-07-27T08:03:56.493Z,96774.88
2018-07-27T08:06:23.748Z,96778.72
2018-07-27T08:08:50.889Z,96773.38
2018-07-27T08:11:18.138Z,96771.34
2018-07-27T08:13:45.244Z,96773.30
2018-07-27T08:16:12.429Z,96770.88
2018-07-27T08:18:39.580Z,96772.53
2018-07-27T08:21:06.805Z,96773.24
2018-07-27T08:23:33.946Z,96766.63
2018-07-27T08:26:36.200Z,96766.56
2018-07-27T08:29:03.399Z,96764.00
2018-07-27T08:31:30.652Z,96761.41
2018-07-27T08:33:58.625Z,96757.84
2018-07-27T08:36:25.835Z,96758.03
2018-07-27T08:38:53.069Z,96757.16
2018-07-27T08:41:20.117Z,96743.95
2018-07-27T08:43:47.340Z,96753.11
2018-07-27T08:46:14.436Z,96743.98
2018-07-27T08:48:41.554Z,96745.56
2018-07-27T08:51:08.741Z,96743.43
2018-07-27T08:53:36.092Z,96738.66
2018-07-27T08:56:06.537Z,96734.61
2018-07-27T08:58:33.679Z,96733.80
2018-07-27T09:01:01.020Z,96731.50
2018-07-27T09:03:28.325Z,96727.31
2018-07-27T09:05:55.460Z,96722.55
2018-07-27T09:08:22.608Z,96725.41
2018-07-27T09:10:49.740Z,96724.81
2018-07-27T09:13:16.877Z,96718.58
2018-07-27T09:15:43.998Z,96719.44
2018-07-27T09:18:11.245Z,96719.24
2018-07-27T09:20:38.391Z,96712.54
2018-07-27T09:23:06.545Z,96721.07
2018-07-27T09:25:33.780Z,96718.91
2018-07-27T09:28:00.956Z,96717.98
2018-07-27T09:30:29.031Z,96718.06
2018-07-27T09:32:56.206Z,96720.27
2018-07-27T09:35:23.459Z,96724.15
2018-07-27T09:37:50.632Z,96720.61
2018-07-27T09:40:17.873Z,96722.81
2018-07-27T09:42:45.019Z,96722.70
2018-07-27T09:45:12.199Z,96725.25
2018-07-27T09:47:39.388Z,96720.02
2018-07-27T09:50:06.742Z,96718.33
2018-07-27T09:52:34.161Z,96717.55
2018-07-27T09:55:01.393Z,96716.53
2018-07-27T09:57:28.724Z,96721.84
2018-07-27T09:59:55.866Z,96727.30
2018-07-27T10:02:23.016Z,96726.33
2018-07-27T10:04:50.164Z,96732.63
2018-07-27T10:07:17.377Z,96727.88
2018-07-27T10:09:44.556Z,96738.22
2018-07-27T10:12:11.708Z,96735.16
2018-07-27T10:14:39.867Z,96736.90
2018-07-27T10:17:07.043Z,96727.64
2018-07-27T10:19:34.527Z,96717.38
2018-07-27T10:22:01.795Z,96718.56
2018-07-27T10:24:29.034Z,96714.14
2018-07-27T10:26:56.197Z,96711.88
2018-07-27T10:29:23.404Z,96711.39
2018-07-27T10:31:50.647Z,96709.80
2018-07-27T10:34:17.817Z,96718.46
2018-07-27T10:36:45.050Z,96712.94
2018-07-27T10:39:12.196Z,96703.94
2018-07-27T10:41:39.354Z,96710.80
2018-07-27T10:44:06.640Z,96701.73
2018-07-27T10:46:33.785Z,96699.76
2018-07-27T10:49:00.989Z,96698.91
2018-07-27T10:51:28.182Z,96705.95
2018-07-27T10:53:55.380Z,96706.01
2018-07-27T10:56:22.583Z,96711.13
2018-07-27T10:58:50.032Z,96712.62
2018-07-27T11:01:17.179Z,96715.53
2018-07-27T11:03:44.339Z,96713.34
2018-07-27T11:06:11.478Z,96717.92
2018-07-27T11:08:38.955Z,96718.34
2018-07-27T11:11:06.187Z,96723.01
2018-07-27T11:13:33.489Z,96712.20
2018-07-27T11:16:00.722Z,96717.03
2018-07-27T11:18:27.969Z,96715.08
2018-07-27T11:20:55.204Z,96710.32
2018-07-27T11:23:22.404Z,96705.64
2018-07-27T11:25:49.632Z,96696.51
2018-07-27T11:28:16.859Z,96690.98
2018-07-27T11:30:44.074Z,96682.12
2018-07-27T11:33:11.292Z,96669.77
2018-07-27T11:35:38.514Z,96671.06
2018-07-27T11:38:05.753Z,96659.11
2018-07-27T11:40:32.956Z,96654.72
2018-07-27T11:43:00.174Z,96650.30
2018-07-27T11:45:27.381Z,96646.62
2018-07-27T11:47:54.525Z,96645.30
2018-07-27T11:50:21.692Z,96640.84
2018-07-27T11:52:48.916Z,96637.86
2018-07-27T11:55:16.145Z,96640.11
2018-07-27T11:57:43.277Z,96639.06
2018-07-27T12:00:10.506Z,96642.42
2018-07-27T12:02:38.932Z,96647.23
2018-07-27T12:05:06.127Z,96647.28
